Kapitan Permyakov — UFQN — position and weather

sailwx.info

Track history (hours):
 
Tides and Currents Weather Stations Pressure Air Temp Water Temp Dewpoint Dewpoint Depression Visibility Wind Speed Wind Dir Waves Ship Positions

Kapitan Permyakov

Last reported at 2018-Jul-23 06:31 UTC. Time now 2018-Jul-23 17:20 UTC.
Position N 45°32' E 036°47'.

Length 140 m; draft 2.9 m.

Type: Tanker. MMSI: 273343600.

Date/timePositionNaut miles runAvg speedWind from/ knotsBaromVisibWave heightAir tempDewpointWater temp
2018-Jul-23 06:31N 45°32' E 036°47'0 7.8
2018-Jul-23 06:29N 45°32' E 036°47'4 7.6
2018-Jul-23 05:57N 45°29' E 036°43'3 7.4
2018-Jul-23 05:30N 45°26' E 036°41'4 7.4
2018-Jul-23 05:00N 45°22' E 036°41'0 1.0
2018-Jul-23 04:30N 45°22' E 036°41'3 5.7
2018-Jul-23 04:00N 45°20' E 036°37'3 7.0
2018-Jul-23 03:30N 45°19' E 036°33'3 6.5
2018-Jul-23 03:00N 45°17' E 036°29'3 6.0
2018-Jul-23 02:30N 45°14' E 036°29'5 1.5
2018-Jul-22 23:15N 45°11' E 036°34'0 0.0
2018-Jul-22 23:00N 45°11' E 036°34'0 0.0
2018-Jul-22 21:50N 45°11' E 036°34'0 0.0
2018-Jul-22 21:20N 45°11' E 036°34'0 0.0
2018-Jul-22 18:42N 45°11' E 036°34'0 0.0
2018-Jul-22 18:07N 45°11' E 036°34'0 0.0
2018-Jul-22 17:58N 45°11' E 036°34'0 0.0
2018-Jul-22 17:27N 45°11' E 036°34'0 0.0
2018-Jul-22 16:48N 45°11' E 036°34'0 0.0
2018-Jul-22 16:21N 45°11' E 036°34'0 0.0
2018-Jul-22 14:57N 45°11' E 036°34'0 0.0
2018-Jul-22 13:59N 45°11' E 036°34'0 0.0
2018-Jul-22 13:27N 45°11' E 036°34'0 0.0
2018-Jul-22 12:56N 45°11' E 036°34'0 0.0
2018-Jul-22 12:26N 45°11' E 036°34'0 0.0
2018-Jul-22 11:43N 45°11' E 036°34'0 0.0
2018-Jul-22 11:28N 45°11' E 036°34'0 0.0
2018-Jul-22 11:00N 45°11' E 036°34'0 0.0
2018-Jul-22 10:25N 45°11' E 036°34'0 0.1
2018-Jul-22 09:55N 45°11' E 036°34'0 0.0
2018-Jul-22 09:25N 45°11' E 036°34'0 0.0
2018-Jul-22 08:58N 45°11' E 036°34'0 0.1
2018-Jul-22 08:20N 45°11' E 036°34'0 0.0
2018-Jul-22 07:59N 45°11' E 036°34'0 0.0
2018-Jul-22 05:06N 45°11' E 036°34'0 0.1
2018-Jul-22 04:04N 45°11' E 036°34'0 0.4
2018-Jul-22 03:57N 45°11' E 036°34'1 0.1
2018-Jul-21 15:53N 45°11' E 036°33'0 0.1
2018-Jul-21 15:27N 45°11' E 036°33'0 0.0
2018-Jul-21 13:45N 45°11' E 036°33'0 0.0
2018-Jul-21 12:33N 45°11' E 036°33'0 0.0
2018-Jul-21 12:26N 45°11' E 036°33'0 0.0
2018-Jul-21 11:55N 45°11' E 036°33'0 0.0
2018-Jul-21 11:29N 45°11' E 036°33'0 0.0
2018-Jul-21 10:56N 45°11' E 036°33'0 0.0
2018-Jul-21 10:30N 45°11' E 036°33'0 0.0
2018-Jul-21 10:00N 45°11' E 036°33'0 0.0
2018-Jul-21 09:20N 45°11' E 036°33'0 0.0
2018-Jul-21 08:51N 45°11' E 036°33'0 0.0
2018-Jul-21 07:36N 45°11' E 036°33'0 0.0
2018-Jul-21 07:11N 45°11' E 036°33'0 0.0
2018-Jul-21 06:47N 45°11' E 036°33'0 0.0
2018-Jul-21 06:28N 45°11' E 036°33'0 0.0
2018-Jul-21 05:58N 45°11' E 036°33'0 0.0
2018-Jul-21 05:18N 45°11' E 036°33'0 0.0
2018-Jul-21 04:57N 45°11' E 036°33'0 0.0
2018-Jul-21 04:26N 45°11' E 036°33'0 0.0
2018-Jul-21 03:45N 45°11' E 036°33'0 0.0
2018-Jul-21 03:20N 45°11' E 036°33'0 0.0
2018-Jul-21 02:57N 45°11' E 036°33'0 0.0
2018-Jul-21 02:22N 45°11' E 036°33'0 0.0
2018-Jul-21 01:45N 45°11' E 036°33'0 0.0
2018-Jul-21 00:51N 45°11' E 036°33'0 0.0
2018-Jul-21 00:30N 45°11' E 036°33'0 0.0
2018-Jul-20 23:50N 45°11' E 036°33'0 0.0
2018-Jul-20 22:42N 45°11' E 036°33'0 0.0
2018-Jul-20 16:26N 45°11' E 036°33'0 0.0
2018-Jul-20 15:53N 45°11' E 036°33'0 0.0
2018-Jul-20 15:28N 45°11' E 036°33'0 0.0
2018-Jul-20 14:57N 45°11' E 036°33'0 0.0
2018-Jul-20 14:22N 45°11' E 036°33'0 0.0
2018-Jul-20 13:53N 45°11' E 036°33'0 0.0
2018-Jul-20 13:28N 45°11' E 036°33'0 0.0
2018-Jul-20 12:54N 45°11' E 036°33'0 0.0
2018-Jul-20 11:52N 45°11' E 036°33'0 0.1
2018-Jul-20 11:30N 45°11' E 036°33'0 0.1
2018-Jul-20 10:57N 45°11' E 036°33'0 0.0
2018-Jul-20 10:30N 45°11' E 036°33'0 0.0
2018-Jul-20 09:58N 45°11' E 036°33'0 0.0
2018-Jul-20 09:28N 45°11' E 036°33'0 0.0
2018-Jul-20 08:58N 45°11' E 036°33'0 0.0
2018-Jul-20 08:25N 45°11' E 036°33'0 0.0
2018-Jul-20 08:00N 45°11' E 036°33'0 0.0
2018-Jul-20 07:29N 45°11' E 036°33'0 0.0
2018-Jul-20 06:57N 45°11' E 036°33'0 0.0
2018-Jul-20 06:30N 45°11' E 036°33'0 0.0
2018-Jul-20 05:52N 45°11' E 036°33'0 0.0
2018-Jul-20 05:05N 45°11' E 036°33'0 0.0
2018-Jul-20 04:57N 45°11' E 036°33'0 0.1
2018-Jul-20 04:23N 45°11' E 036°33'0 0.0
2018-Jul-20 03:58N 45°11' E 036°33'0 0.0
2018-Jul-19 15:04N 45°11' E 036°33'0 0.1
2018-Jul-19 15:00N 45°11' E 036°33'0 0.0
2018-Jul-19 14:30N 45°11' E 036°33'0 0.0
2018-Jul-19 13:26N 45°11' E 036°33'0 0.0
2018-Jul-19 13:00N 45°11' E 036°33'0 0.0
2018-Jul-19 12:28N 45°11' E 036°33'0 0.0
2018-Jul-19 12:00N 45°11' E 036°33'0 0.0
2018-Jul-19 11:30N 45°11' E 036°33'0 0.0
2018-Jul-18 05:29N 45°11' E 036°32'0 0.0
2018-Jul-18 04:54N 45°11' E 036°33'0 0.0
2018-Jul-17 07:21N 45°11' E 036°33'0 0.0
2018-Jul-17 06:59N 45°11' E 036°33'0 0.0
2018-Jul-16 15:32N 45°11' E 036°33'0 0.0
2018-Jul-16 15:18N 45°11' E 036°33'0 0.0
2018-Jul-16 12:29N 45°11' E 036°33'0 0.0
2018-Jul-16 10:38N 45°11' E 036°33'0 0.0
2018-Jul-15 12:59N 45°11' E 036°32'0 0.0
2018-Jul-15 12:05N 45°11' E 036°32'0 0.0
2018-Jul-15 11:57N 45°11' E 036°32'0 0.0
2018-Jul-15 11:01N 45°11' E 036°32'0 0.0
2018-Jul-15 10:43N 45°11' E 036°32'0 0.0
2018-Jul-15 10:24N 45°11' E 036°32'0 0.0
2018-Jul-15 09:56N 45°11' E 036°32'0 0.0
2018-Jul-15 09:24N 45°11' E 036°32'0 0.0
2018-Jul-15 08:46N 45°11' E 036°32'0 0.0
2018-Jul-15 06:36N 45°11' E 036°32'0 0.0
2018-Jul-15 04:10N 45°11' E 036°33'9 1.1
2018-Jul-14 19:35N 45°20' E 036°34'1 6.1
2018-Jul-14 19:30N 45°20' E 036°35'3 6.2
2018-Jul-14 19:00N 45°21' E 036°39'3 5.7
2018-Jul-14 18:30N 45°24' E 036°40'5 0.9
2018-Jul-14 13:05N 45°29' E 036°38'0 0.0
2018-Jul-14 13:00N 45°29' E 036°38'0 0.0
2018-Jul-14 12:28N 45°29' E 036°38'0 0.0
2018-Jul-14 11:59N 45°29' E 036°38'0 0.0
2018-Jul-14 11:27N 45°29' E 036°38'0 0.1
2018-Jul-14 11:00N 45°29' E 036°38'0 0.0
2018-Jul-14 10:30N 45°29' E 036°38'0 0.0
2018-Jul-14 08:12N 45°29' E 036°38'0 0.1
2018-Jul-14 08:00N 45°29' E 036°38'  
Track history (hours):
 
Tides and Currents Weather Stations Pressure Air Temp Water Temp Dewpoint Dewpoint Depression Visibility Wind Speed Wind Dir Waves Ship Positions

Kapitan Permyakov

Last reported at 2018-Jul-23 06:31 UTC. Time now 2018-Jul-23 17:20 UTC.
Position N 45°32' E 036°47'.

Length 140 m; draft 2.9 m.

Type: Tanker. MMSI: 273343600.

Date/timePositionNaut miles runAvg speedWind from/ knotsBaromVisibWave heightAir tempDewpointWater temp
2018-Jul-23 06:31N 45°32' E 036°47'0 7.8
2018-Jul-23 06:29N 45°32' E 036°47'4 7.6
2018-Jul-23 05:57N 45°29' E 036°43'3 7.4
2018-Jul-23 05:30N 45°26' E 036°41'4 7.4
2018-Jul-23 05:00N 45°22' E 036°41'0 1.0
2018-Jul-23 04:30N 45°22' E 036°41'3 5.7
2018-Jul-23 04:00N 45°20' E 036°37'3 7.0
2018-Jul-23 03:30N 45°19' E 036°33'3 6.5
2018-Jul-23 03:00N 45°17' E 036°29'3 6.0
2018-Jul-23 02:30N 45°14' E 036°29'5 1.5
2018-Jul-22 23:15N 45°11' E 036°34'0 0.0
2018-Jul-22 23:00N 45°11' E 036°34'0 0.0
2018-Jul-22 21:50N 45°11' E 036°34'0 0.0
2018-Jul-22 21:20N 45°11' E 036°34'0 0.0
2018-Jul-22 18:42N 45°11' E 036°34'0 0.0
2018-Jul-22 18:07N 45°11' E 036°34'0 0.0
2018-Jul-22 17:58N 45°11' E 036°34'0 0.0
2018-Jul-22 17:27N 45°11' E 036°34'0 0.0
2018-Jul-22 16:48N 45°11' E 036°34'0 0.0
2018-Jul-22 16:21N 45°11' E 036°34'0 0.0
2018-Jul-22 14:57N 45°11' E 036°34'0 0.0
2018-Jul-22 13:59N 45°11' E 036°34'0 0.0
2018-Jul-22 13:27N 45°11' E 036°34'0 0.0
2018-Jul-22 12:56N 45°11' E 036°34'0 0.0
2018-Jul-22 12:26N 45°11' E 036°34'0 0.0
2018-Jul-22 11:43N 45°11' E 036°34'0 0.0
2018-Jul-22 11:28N 45°11' E 036°34'0 0.0
2018-Jul-22 11:00N 45°11' E 036°34'0 0.0
2018-Jul-22 10:25N 45°11' E 036°34'0 0.1
2018-Jul-22 09:55N 45°11' E 036°34'0 0.0
2018-Jul-22 09:25N 45°11' E 036°34'0 0.0
2018-Jul-22 08:58N 45°11' E 036°34'0 0.1
2018-Jul-22 08:20N 45°11' E 036°34'0 0.0
2018-Jul-22 07:59N 45°11' E 036°34'0 0.0
2018-Jul-22 05:06N 45°11' E 036°34'0 0.1
2018-Jul-22 04:04N 45°11' E 036°34'0 0.4
2018-Jul-22 03:57N 45°11' E 036°34'1 0.1
2018-Jul-21 15:53N 45°11' E 036°33'0 0.1
2018-Jul-21 15:27N 45°11' E 036°33'0 0.0
2018-Jul-21 13:45N 45°11' E 036°33'0 0.0
2018-Jul-21 12:33N 45°11' E 036°33'0 0.0
2018-Jul-21 12:26N 45°11' E 036°33'0 0.0
2018-Jul-21 11:55N 45°11' E 036°33'0 0.0
2018-Jul-21 11:29N 45°11' E 036°33'0 0.0
2018-Jul-21 10:56N 45°11' E 036°33'0 0.0
2018-Jul-21 10:30N 45°11' E 036°33'0 0.0
2018-Jul-21 10:00N 45°11' E 036°33'0 0.0
2018-Jul-21 09:20N 45°11' E 036°33'0 0.0
2018-Jul-21 08:51N 45°11' E 036°33'0 0.0
2018-Jul-21 07:36N 45°11' E 036°33'0 0.0
2018-Jul-21 07:11N 45°11' E 036°33'0 0.0
2018-Jul-21 06:47N 45°11' E 036°33'0 0.0
2018-Jul-21 06:28N 45°11' E 036°33'0 0.0
2018-Jul-21 05:58N 45°11' E 036°33'0 0.0
2018-Jul-21 05:18N 45°11' E 036°33'0 0.0
2018-Jul-21 04:57N 45°11' E 036°33'0 0.0
2018-Jul-21 04:26N 45°11' E 036°33'0 0.0
2018-Jul-21 03:45N 45°11' E 036°33'0 0.0
2018-Jul-21 03:20N 45°11' E 036°33'0 0.0
2018-Jul-21 02:57N 45°11' E 036°33'0 0.0
2018-Jul-21 02:22N 45°11' E 036°33'0 0.0
2018-Jul-21 01:45N 45°11' E 036°33'0 0.0
2018-Jul-21 00:51N 45°11' E 036°33'0 0.0
2018-Jul-21 00:30N 45°11' E 036°33'0 0.0
2018-Jul-20 23:50N 45°11' E 036°33'0 0.0
2018-Jul-20 22:42N 45°11' E 036°33'0 0.0
2018-Jul-20 16:26N 45°11' E 036°33'0 0.0
2018-Jul-20 15:53N 45°11' E 036°33'0 0.0
2018-Jul-20 15:28N 45°11' E 036°33'0 0.0
2018-Jul-20 14:57N 45°11' E 036°33'0 0.0
2018-Jul-20 14:22N 45°11' E 036°33'0 0.0
2018-Jul-20 13:53N 45°11' E 036°33'0 0.0
2018-Jul-20 13:28N 45°11' E 036°33'0 0.0
2018-Jul-20 12:54N 45°11' E 036°33'0 0.0
2018-Jul-20 11:52N 45°11' E 036°33'0 0.1
2018-Jul-20 11:30N 45°11' E 036°33'0 0.1
2018-Jul-20 10:57N 45°11' E 036°33'0 0.0
2018-Jul-20 10:30N 45°11' E 036°33'0 0.0
2018-Jul-20 09:58N 45°11' E 036°33'0 0.0
2018-Jul-20 09:28N 45°11' E 036°33'0 0.0
2018-Jul-20 08:58N 45°11' E 036°33'0 0.0
2018-Jul-20 08:25N 45°11' E 036°33'0 0.0
2018-Jul-20 08:00N 45°11' E 036°33'0 0.0
2018-Jul-20 07:29N 45°11' E 036°33'0 0.0
2018-Jul-20 06:57N 45°11' E 036°33'0 0.0
2018-Jul-20 06:30N 45°11' E 036°33'0 0.0
2018-Jul-20 05:52N 45°11' E 036°33'0 0.0
2018-Jul-20 05:05N 45°11' E 036°33'0 0.0
2018-Jul-20 04:57N 45°11' E 036°33'0 0.1
2018-Jul-20 04:23N 45°11' E 036°33'0 0.0
2018-Jul-20 03:58N 45°11' E 036°33'0 0.0
2018-Jul-19 15:04N 45°11' E 036°33'0 0.1
2018-Jul-19 15:00N 45°11' E 036°33'0 0.0
2018-Jul-19 14:30N 45°11' E 036°33'0 0.0
2018-Jul-19 13:26N 45°11' E 036°33'0 0.0
2018-Jul-19 13:00N 45°11' E 036°33'0 0.0
2018-Jul-19 12:28N 45°11' E 036°33'0 0.0
2018-Jul-19 12:00N 45°11' E 036°33'0 0.0
2018-Jul-19 11:30N 45°11' E 036°33'0 0.0
2018-Jul-18 05:29N 45°11' E 036°32'0 0.0
2018-Jul-18 04:54N 45°11' E 036°33'0 0.0
2018-Jul-17 07:21N 45°11' E 036°33'0 0.0
2018-Jul-17 06:59N 45°11' E 036°33'0 0.0
2018-Jul-16 15:32N 45°11' E 036°33'0 0.0
2018-Jul-16 15:18N 45°11' E 036°33'0 0.0
2018-Jul-16 12:29N 45°11' E 036°33'0 0.0
2018-Jul-16 10:38N 45°11' E 036°33'0 0.0
2018-Jul-15 12:59N 45°11' E 036°32'0 0.0
2018-Jul-15 12:05N 45°11' E 036°32'0 0.0
2018-Jul-15 11:57N 45°11' E 036°32'0 0.0
2018-Jul-15 11:01N 45°11' E 036°32'0 0.0
2018-Jul-15 10:43N 45°11' E 036°32'0 0.0
2018-Jul-15 10:24N 45°11' E 036°32'0 0.0
2018-Jul-15 09:56N 45°11' E 036°32'0 0.0
2018-Jul-15 09:24N 45°11' E 036°32'0 0.0
2018-Jul-15 08:46N 45°11' E 036°32'0 0.0
2018-Jul-15 06:36N 45°11' E 036°32'0 0.0
2018-Jul-15 04:10N 45°11' E 036°33'9 1.1
2018-Jul-14 19:35N 45°20' E 036°34'1 6.1
2018-Jul-14 19:30N 45°20' E 036°35'3 6.2
2018-Jul-14 19:00N 45°21' E 036°39'3 5.7
2018-Jul-14 18:30N 45°24' E 036°40'5 0.9
2018-Jul-14 13:05N 45°29' E 036°38'0 0.0
2018-Jul-14 13:00N 45°29' E 036°38'0 0.0
2018-Jul-14 12:28N 45°29' E 036°38'0 0.0
2018-Jul-14 11:59N 45°29' E 036°38'0 0.0
2018-Jul-14 11:27N 45°29' E 036°38'0 0.1
2018-Jul-14 11:00N 45°29' E 036°38'0 0.0
2018-Jul-14 10:30N 45°29' E 036°38'0 0.0
2018-Jul-14 08:12N 45°29' E 036°38'0 0.1
2018-Jul-14 08:00N 45°29' E 036°38'  

Dump ship's entire track history